sensor_id;sensor_type;location;lat;lon;timestamp;pressure;altitude;pressure_sealevel;temperature;humidity
84020;BME280;74102;49.084;13.694;2024-02-16T00:00:12;93488.75;;;3.08;76.90
84020;BME280;74102;49.084;13.694;2024-02-16T00:02:38;93480.81;;;3.00;77.34
84020;BME280;74102;49.084;13.694;2024-02-16T00:05:05;93483.06;;;3.05;77.40
84020;BME280;74102;49.084;13.694;2024-02-16T00:07:32;93477.75;;;3.06;77.12
84020;BME280;74102;49.084;13.694;2024-02-16T00:09:58;93471.66;;;3.07;76.55
84020;BME280;74102;49.084;13.694;2024-02-16T00:12:23;93473.50;;;3.05;76.86
84020;BME280;74102;49.084;13.694;2024-02-16T00:14:49;93478.25;;;3.00;77.13
84020;BME280;74102;49.084;13.694;2024-02-16T00:17:14;93474.16;;;2.98;78.07
84020;BME280;74102;49.084;13.694;2024-02-16T00:19:40;93474.00;;;2.99;77.26
84020;BME280;74102;49.084;13.694;2024-02-16T00:22:05;93473.75;;;3.02;76.83
84020;BME280;74102;49.084;13.694;2024-02-16T00:24:33;93478.03;;;2.92;77.38
84020;BME280;74102;49.084;13.694;2024-02-16T00:26:59;93474.81;;;2.79;77.54
84020;BME280;74102;49.084;13.694;2024-02-16T00:29:24;93476.34;;;2.82;77.30
84020;BME280;74102;49.084;13.694;2024-02-16T00:31:50;93474.44;;;2.84;77.32
84020;BME280;74102;49.084;13.694;2024-02-16T00:34:15;93471.50;;;2.88;77.00
84020;BME280;74102;49.084;13.694;2024-02-16T00:36:41;93475.00;;;2.87;76.78
84020;BME280;74102;49.084;13.694;2024-02-16T00:39:06;93476.19;;;2.83;77.18
84020;BME280;74102;49.084;13.694;2024-02-16T00:41:31;93470.59;;;2.78;77.27
84020;BME280;74102;49.084;13.694;2024-02-16T00:43:57;93465.44;;;2.78;77.05
84020;BME280;74102;49.084;13.694;2024-02-16T00:46:23;93461.91;;;2.79;76.86
84020;BME280;74102;49.084;13.694;2024-02-16T00:48:52;93465.09;;;2.72;77.99
84020;BME280;74102;49.084;13.694;2024-02-16T00:51:17;93469.69;;;2.68;77.78
84020;BME280;74102;49.084;13.694;2024-02-16T00:53:43;93469.69;;;2.68;77.34
84020;BME280;74102;49.084;13.694;2024-02-16T00:56:08;93462.88;;;2.67;77.01
84020;BME280;74102;49.084;13.694;2024-02-16T00:58:35;93464.50;;;2.68;77.08
84020;BME280;74102;49.084;13.694;2024-02-16T01:01:01;93457.47;;;2.70;76.69
84020;BME280;74102;49.084;13.694;2024-02-16T01:03:26;93462.63;;;2.70;76.88
84020;BME280;74102;49.084;13.694;2024-02-16T01:05:52;93452.44;;;2.69;76.54
84020;BME280;74102;49.084;13.694;2024-02-16T01:08:18;93454.44;;;2.65;76.54
84020;BME280;74102;49.084;13.694;2024-02-16T01:10:43;93451.16;;;2.63;76.62
84020;BME280;74102;49.084;13.694;2024-02-16T01:13:09;93453.53;;;2.55;77.04
84020;BME280;74102;49.084;13.694;2024-02-16T01:15:35;93455.66;;;2.50;77.93
84020;BME280;74102;49.084;13.694;2024-02-16T01:18:02;93453.91;;;2.50;77.75
84020;BME280;74102;49.084;13.694;2024-02-16T01:20:28;93451.19;;;2.52;77.32
84020;BME280;74102;49.084;13.694;2024-02-16T01:22:56;93442.50;;;2.53;77.32
84020;BME280;74102;49.084;13.694;2024-02-16T01:25:21;93440.75;;;2.53;76.86
84020;BME280;74102;49.084;13.694;2024-02-16T01:27:47;93443.19;;;2.55;76.71
84020;BME280;74102;49.084;13.694;2024-02-16T01:30:12;93443.19;;;2.55;76.74
84020;BME280;74102;49.084;13.694;2024-02-16T01:32:37;93447.69;;;2.53;76.53
84020;BME280;74102;49.084;13.694;2024-02-16T01:35:03;93430.09;;;2.47;76.43
84020;BME280;74102;49.084;13.694;2024-02-16T01:37:28;93435.75;;;2.41;76.85
84020;BME280;74102;49.084;13.694;2024-02-16T01:39:54;93432.69;;;2.36;76.87
84020;BME280;74102;49.084;13.694;2024-02-16T01:42:19;93418.63;;;2.40;76.85
84020;BME280;74102;49.084;13.694;2024-02-16T01:44:44;93429.19;;;2.37;76.96
84020;BME280;74102;49.084;13.694;2024-02-16T01:47:10;93413.94;;;2.34;76.97
84020;BME280;74102;49.084;13.694;2024-02-16T01:49:35;93416.97;;;2.39;77.01
84020;BME280;74102;49.084;13.694;2024-02-16T01:52:02;93423.06;;;2.38;77.31
84020;BME280;74102;49.084;13.694;2024-02-16T01:54:28;93412.88;;;2.36;76.68
84020;BME280;74102;49.084;13.694;2024-02-16T01:56:54;93421.69;;;2.34;76.62
84020;BME280;74102;49.084;13.694;2024-02-16T01:59:20;93416.06;;;2.29;76.76
84020;BME280;74102;49.084;13.694;2024-02-16T02:01:46;93412.53;;;2.30;76.95
84020;BME280;74102;49.084;13.694;2024-02-16T02:04:11;93414.19;;;2.31;76.82
84020;BME280;74102;49.084;13.694;2024-02-16T02:06:36;93408.78;;;2.34;76.63
84020;BME280;74102;49.084;13.694;2024-02-16T02:09:03;93402.22;;;2.30;76.44
84020;BME280;74102;49.084;13.694;2024-02-16T02:11:29;93403.16;;;2.29;76.77
84020;BME280;74102;49.084;13.694;2024-02-16T02:13:54;93398.13;;;2.27;76.85
84020;BME280;74102;49.084;13.694;2024-02-16T02:16:20;93394.03;;;2.25;76.98
84020;BME280;74102;49.084;13.694;2024-02-16T02:18:46;93392.38;;;2.24;76.98
84020;BME280;74102;49.084;13.694;2024-02-16T02:21:11;93391.47;;;2.25;76.82
84020;BME280;74102;49.084;13.694;2024-02-16T02:23:39;93394.25;;;2.22;76.89
84020;BME280;74102;49.084;13.694;2024-02-16T02:26:05;93391.66;;;2.22;77.00
84020;BME280;74102;49.084;13.694;2024-02-16T02:28:30;93396.72;;;2.23;76.83
84020;BME280;74102;49.084;13.694;2024-02-16T02:30:55;93395.91;;;2.23;76.65
84020;BME280;74102;49.084;13.694;2024-02-16T02:33:21;93398.03;;;2.18;77.28
84020;BME280;74102;49.084;13.694;2024-02-16T02:35:46;93390.41;;;2.16;77.04
84020;BME280;74102;49.084;13.694;2024-02-16T02:38:12;93393.81;;;2.17;77.12
84020;BME280;74102;49.084;13.694;2024-02-16T02:40:38;93386.06;;;2.17;76.67
84020;BME280;74102;49.084;13.694;2024-02-16T02:43:03;93383.50;;;2.17;76.51
84020;BME280;74102;49.084;13.694;2024-02-16T02:45:29;93384.41;;;2.16;76.64
84020;BME280;74102;49.084;13.694;2024-02-16T02:47:54;93384.66;;;2.12;76.78
84020;BME280;74102;49.084;13.694;2024-02-16T02:50:20;93383.63;;;2.15;76.95
84020;BME280;74102;49.084;13.694;2024-02-16T02:52:45;93374.34;;;2.12;77.27
84020;BME280;74102;49.084;13.694;2024-02-16T02:55:11;93372.72;;;2.11;76.87
84020;BME280;74102;49.084;13.694;2024-02-16T02:57:36;93378.81;;;2.10;76.95
84020;BME280;74102;49.084;13.694;2024-02-16T03:00:03;93370.94;;;2.12;76.80
84020;BME280;74102;49.084;13.694;2024-02-16T03:02:31;93373.91;;;2.07;76.67
84020;BME280;74102;49.084;13.694;2024-02-16T03:04:56;93366.28;;;2.06;77.42
84020;BME280;74102;49.084;13.694;2024-02-16T03:07:22;93370.50;;;2.07;77.27
84020;BME280;74102;49.084;13.694;2024-02-16T03:09:47;93360.19;;;2.07;77.05
84020;BME280;74102;49.084;13.694;2024-02-16T03:12:12;93370.41;;;2.08;77.10
84020;BME280;74102;49.084;13.694;2024-02-16T03:14:38;93363.34;;;2.10;77.24
84020;BME280;74102;49.084;13.694;2024-02-16T03:17:03;93360.53;;;2.13;76.57
84020;BME280;74102;49.084;13.694;2024-02-16T03:19:29;93370.00;;;2.13;76.65
84020;BME280;74102;49.084;13.694;2024-02-16T03:21:54;93364.03;;;2.12;76.76
84020;BME280;74102;49.084;13.694;2024-02-16T03:24:20;93362.16;;;2.15;76.84
84020;BME280;74102;49.084;13.694;2024-02-16T03:26:47;93368.38;;;2.12;77.01
84020;BME280;74102;49.084;13.694;2024-02-16T03:29:12;93367.56;;;2.11;76.78
84020;BME280;74102;49.084;13.694;2024-02-16T03:31:38;93366.50;;;2.14;76.99
84020;BME280;74102;49.084;13.694;2024-02-16T03:34:03;93361.19;;;2.16;76.88
84020;BME280;74102;49.084;13.694;2024-02-16T03:36:29;93365.44;;;2.17;76.81
84020;BME280;74102;49.084;13.694;2024-02-16T03:38:55;93362.84;;;2.17;77.13
84020;BME280;74102;49.084;13.694;2024-02-16T03:41:22;93364.38;;;2.19;77.10
84020;BME280;74102;49.084;13.694;2024-02-16T03:43:51;93360.84;;;2.20;76.95
84020;BME280;74102;49.084;13.694;2024-02-16T03:46:16;93360.28;;;2.17;77.09
84020;BME280;74102;49.084;13.694;2024-02-16T03:48:42;93359.94;;;2.10;77.53
84020;BME280;74102;49.084;13.694;2024-02-16T03:51:07;93364.75;;;2.03;78.53
84020;BME280;74102;49.084;13.694;2024-02-16T03:53:33;93361.25;;;2.04;78.41
84020;BME280;74102;49.084;13.694;2024-02-16T03:55:59;93362.41;;;2.11;77.95
84020;BME280;74102;49.084;13.694;2024-02-16T03:58:24;93370.00;;;2.13;77.53
84020;BME280;74102;49.084;13.694;2024-02-16T04:00:50;93371.75;;;2.12;77.53
84020;BME280;74102;49.084;13.694;2024-02-16T04:03:16;93370.84;;;2.13;77.20
84020;BME280;74102;49.084;13.694;2024-02-16T04:05:42;93377.16;;;2.21;77.43
84020;BME280;74102;49.084;13.694;2024-02-16T04:08:07;93382.06;;;2.24;77.37
84020;BME280;74102;49.084;13.694;2024-02-16T04:10:33;93369.84;;;2.26;77.17
84020;BME280;74102;49.084;13.694;2024-02-16T04:12:59;93379.09;;;2.28;77.14
84020;BME280;74102;49.084;13.694;2024-02-16T04:15:25;93375.50;;;2.31;77.33
84020;BME280;74102;49.084;13.694;2024-02-16T04:17:51;93379.69;;;2.32;76.98
84020;BME280;74102;49.084;13.694;2024-02-16T04:20:16;93384.03;;;2.31;77.15
84020;BME280;74102;49.084;13.694;2024-02-16T04:22:42;93379.25;;;2.27;77.58
84020;BME280;74102;49.084;13.694;2024-02-16T04:25:08;93381.81;;;2.27;77.38
84020;BME280;74102;49.084;13.694;2024-02-16T04:27:34;93383.72;;;2.25;78.37
84020;BME280;74102;49.084;13.694;2024-02-16T04:30:00;93386.66;;;2.20;77.99
84020;BME280;74102;49.084;13.694;2024-02-16T04:32:25;93386.50;;;2.22;78.42
84020;BME280;74102;49.084;13.694;2024-02-16T04:34:51;93392.16;;;2.27;78.18
84020;BME280;74102;49.084;13.694;2024-02-16T04:37:21;93378.75;;;2.33;78.08
84020;BME280;74102;49.084;13.694;2024-02-16T04:39:47;93382.72;;;2.37;78.05
84020;BME280;74102;49.084;13.694;2024-02-16T04:42:13;93382.72;;;2.37;78.03
84020;BME280;74102;49.084;13.694;2024-02-16T04:44:38;93382.50;;;2.40;77.86
84020;BME280;74102;49.084;13.694;2024-02-16T04:47:05;93380.59;;;2.42;78.23
84020;BME280;74102;49.084;13.694;2024-02-16T04:49:30;93365.09;;;2.42;78.22
84020;BME280;74102;49.084;13.694;2024-02-16T04:51:56;93377.75;;;2.45;78.08
84020;BME280;74102;49.084;13.694;2024-02-16T04:54:21;93369.78;;;2.48;77.62
84020;BME280;74102;49.084;13.694;2024-02-16T04:56:48;93367.91;;;2.50;77.80
84020;BME280;74102;49.084;13.694;2024-02-16T04:59:14;93369.78;;;2.48;78.00
84020;BME280;74102;49.084;13.694;2024-02-16T05:01:39;93379.28;;;2.47;78.06
84020;BME280;74102;49.084;13.694;2024-02-16T05:04:04;93375.19;;;2.45;78.13
84020;BME280;74102;49.084;13.694;2024-02-16T05:06:30;93370.03;;;2.45;77.67
84020;BME280;74102;49.084;13.694;2024-02-16T05:08:56;93369.09;;;2.46;77.56
84020;BME280;74102;49.084;13.694;2024-02-16T05:11:22;93365.56;;;2.47;77.89
84020;BME280;74102;49.084;13.694;2024-02-16T05:13:49;93365.69;;;2.45;77.97
84020;BME280;74102;49.084;13.694;2024-02-16T05:16:15;93376.50;;;2.39;78.06
84020;BME280;74102;49.084;13.694;2024-02-16T05:18:40;93364.19;;;2.32;78.46
84020;BME280;74102;49.084;13.694;2024-02-16T05:21:06;93366.09;;;2.30;79.62
84020;BME280;74102;49.084;13.694;2024-02-16T05:23:31;93367.50;;;2.34;79.15
84020;BME280;74102;49.084;13.694;2024-02-16T05:25:57;93369.69;;;2.38;78.61
84020;BME280;74102;49.084;13.694;2024-02-16T05:28:22;93375.56;;;2.40;78.58
84020;BME280;74102;49.084;13.694;2024-02-16T05:30:47;93373.00;;;2.40;77.59
84020;BME280;74102;49.084;13.694;2024-02-16T05:33:12;93384.34;;;2.38;77.96
84020;BME280;74102;49.084;13.694;2024-02-16T05:35:40;93365.59;;;2.36;78.45
84020;BME280;74102;49.084;13.694;2024-02-16T05:38:06;93374.03;;;2.38;78.44
84020;BME280;74102;49.084;13.694;2024-02-16T05:40:36;93373.00;;;2.40;78.26
84020;BME280;74102;49.084;13.694;2024-02-16T05:43:18;93372.28;;;2.38;77.62
84020;BME280;74102;49.084;13.694;2024-02-16T05:45:44;93374.03;;;2.38;77.49
84020;BME280;74102;49.084;13.694;2024-02-16T05:48:09;93375.91;;;2.36;77.86
84020;BME280;74102;49.084;13.694;2024-02-16T05:50:35;93375.34;;;2.32;77.81
84020;BME280;74102;49.084;13.694;2024-02-16T05:53:01;93378.06;;;2.31;77.54
84020;BME280;74102;49.084;13.694;2024-02-16T05:55:26;93374.66;;;2.30;77.71
84020;BME280;74102;49.084;13.694;2024-02-16T05:57:51;93379.94;;;2.29;77.50
84020;BME280;74102;49.084;13.694;2024-02-16T06:00:17;93376.41;;;2.30;77.81
84020;BME280;74102;49.084;13.694;2024-02-16T06:02:46;93379.34;;;2.25;78.09
84020;BME280;74102;49.084;13.694;2024-02-16T06:05:12;93386.97;;;2.27;77.94
84020;BME280;74102;49.084;13.694;2024-02-16T06:07:37;93383.22;;;2.31;78.10
84020;BME280;74102;49.084;13.694;2024-02-16T06:10:03;93393.06;;;2.37;77.72
84020;BME280;74102;49.084;13.694;2024-02-16T06:12:32;93387.91;;;2.37;77.62
84020;BME280;74102;49.084;13.694;2024-02-16T06:14:58;93391.88;;;2.41;77.67
84020;BME280;74102;49.084;13.694;2024-02-16T06:17:23;93394.47;;;2.41;77.93
84020;BME280;74102;49.084;13.694;2024-02-16T06:19:49;93390.91;;;2.42;77.80
84020;BME280;74102;49.084;13.694;2024-02-16T06:22:15;93385.50;;;2.45;77.64
84020;BME280;74102;49.084;13.694;2024-02-16T06:24:40;93395.59;;;2.48;77.97
84020;BME280;74102;49.084;13.694;2024-02-16T06:27:05;93396.16;;;2.51;78.00
84020;BME280;74102;49.084;13.694;2024-02-16T06:29:33;93406.00;;;2.57;77.76
84020;BME280;74102;49.084;13.694;2024-02-16T06:31:59;93406.56;;;2.61;77.76
84020;BME280;74102;49.084;13.694;2024-02-16T06:34:24;93407.19;;;2.53;78.50
84020;BME280;74102;49.084;13.694;2024-02-16T06:36:49;93404.47;;;2.55;78.35
84020;BME280;74102;49.084;13.694;2024-02-16T06:39:16;93394.38;;;2.63;78.26
84020;BME280;74102;49.084;13.694;2024-02-16T06:41:45;93403.38;;;2.69;78.18
84020;BME280;74102;49.084;13.694;2024-02-16T06:44:14;93405.56;;;2.73;77.97
84020;BME280;74102;49.084;13.694;2024-02-16T06:46:40;93405.31;;;2.76;78.15
84020;BME280;74102;49.084;13.694;2024-02-16T06:49:06;93408.38;;;2.81;78.26
84020;BME280;74102;49.084;13.694;2024-02-16T06:51:31;93410.25;;;2.79;78.28
84020;BME280;74102;49.084;13.694;2024-02-16T06:53:56;93405.88;;;2.80;78.59
84020;BME280;74102;49.084;13.694;2024-02-16T06:56:22;93410.69;;;2.84;78.68
84020;BME280;74102;49.084;13.694;2024-02-16T06:58:47;93414.41;;;2.91;78.74
84020;BME280;74102;49.084;13.694;2024-02-16T07:01:13;93410.41;;;2.98;78.49
84020;BME280;74102;49.084;13.694;2024-02-16T07:03:39;93421.84;;;3.05;78.67
84020;BME280;74102;49.084;13.694;2024-02-16T07:06:05;93415.50;;;3.09;78.66
84020;BME280;74102;49.084;13.694;2024-02-16T07:08:37;93416.63;;;3.16;78.43
84020;BME280;74102;49.084;13.694;2024-02-16T07:11:03;93423.31;;;3.19;78.40
84020;BME280;74102;49.084;13.694;2024-02-16T07:13:30;93431.50;;;3.24;78.32
84020;BME280;74102;49.084;13.694;2024-02-16T07:15:55;93427.59;;;3.30;78.39
84020;BME280;74102;49.084;13.694;2024-02-16T07:18:21;93429.66;;;3.36;78.01
84020;BME280;74102;49.084;13.694;2024-02-16T07:20:47;93434.31;;;3.42;78.84
84020;BME280;74102;49.084;13.694;2024-02-16T07:23:12;93437.34;;;3.47;78.18
84020;BME280;74102;49.084;13.694;2024-02-16T07:25:38;93433.56;;;3.51;78.53
84020;BME280;74102;49.084;13.694;2024-02-16T07:28:03;93437.63;;;3.53;78.93
84020;BME280;74102;49.084;13.694;2024-02-16T07:30:30;93441.06;;;3.54;78.74
84020;BME280;74102;49.084;13.694;2024-02-16T07:32:55;93445.28;;;3.55;78.45
84020;BME280;74102;49.084;13.694;2024-02-16T07:35:21;93445.44;;;3.63;78.15
84020;BME280;74102;49.084;13.694;2024-02-16T07:37:49;93451.06;;;3.68;78.68
84020;BME280;74102;49.084;13.694;2024-02-16T07:40:17;93450.13;;;3.69;78.28
84020;BME280;74102;49.084;13.694;2024-02-16T07:42:42;93444.72;;;3.72;78.33
84020;BME280;74102;49.084;13.694;2024-02-16T07:45:09;93449.34;;;3.78;78.50
84020;BME280;74102;49.084;13.694;2024-02-16T07:47:37;93441.06;;;3.84;78.18
84020;BME280;74102;49.084;13.694;2024-02-16T07:50:02;93452.56;;;3.91;77.67
84020;BME280;74102;49.084;13.694;2024-02-16T07:52:28;93455.28;;;3.99;77.91
84020;BME280;74102;49.084;13.694;2024-02-16T07:54:54;93456.41;;;4.06;78.26
84020;BME280;74102;49.084;13.694;2024-02-16T07:57:19;93445.28;;;4.15;77.94
84020;BME280;74102;49.084;13.694;2024-02-16T07:59:45;93451.56;;;4.22;77.81
84020;BME280;74102;49.084;13.694;2024-02-16T08:02:11;93462.78;;;4.33;77.54
84020;BME280;74102;49.084;13.694;2024-02-16T08:04:40;93448.34;;;4.40;78.14
84020;BME280;74102;49.084;13.694;2024-02-16T08:07:06;93458.72;;;4.49;77.32
84020;BME280;74102;49.084;13.694;2024-02-16T08:09:31;93452.75;;;4.58;77.44
84020;BME280;74102;49.084;13.694;2024-02-16T08:11:57;93455.47;;;4.66;77.25
84020;BME280;74102;49.084;13.694;2024-02-16T08:14:22;93464.22;;;4.75;76.77
84020;BME280;74102;49.084;13.694;2024-02-16T08:16:47;93466.69;;;4.86;77.04
84020;BME280;74102;49.084;13.694;2024-02-16T08:19:13;93460.69;;;4.95;77.88
84020;BME280;74102;49.084;13.694;2024-02-16T08:21:39;93454.94;;;5.01;77.76
84020;BME280;74102;49.084;13.694;2024-02-16T08:24:06;93453.44;;;5.08;77.53
84020;BME280;74102;49.084;13.694;2024-02-16T08:26:32;93453.44;;;5.18;77.62
84020;BME280;74102;49.084;13.694;2024-02-16T08:28:57;93451.94;;;5.25;77.59
84020;BME280;74102;49.084;13.694;2024-02-16T08:31:23;93458.34;;;5.30;77.08
84020;BME280;74102;49.084;13.694;2024-02-16T08:33:48;93450.00;;;5.37;77.12
84020;BME280;74102;49.084;13.694;2024-02-16T08:36:14;93451.94;;;5.44;76.91
84020;BME280;74102;49.084;13.694;2024-02-16T08:38:40;93445.06;;;5.53;76.47
84020;BME280;74102;49.084;13.694;2024-02-16T08:41:05;93442.91;;;5.58;75.94
84020;BME280;74102;49.084;13.694;2024-02-16T08:43:31;93441.66;;;5.62;76.03
84020;BME280;74102;49.084;13.694;2024-02-16T08:45:56;93438.50;;;5.68;75.64
84020;BME280;74102;49.084;13.694;2024-02-16T08:48:23;93439.03;;;5.71;75.43
84020;BME280;74102;49.084;13.694;2024-02-16T08:50:49;93439.56;;;5.75;75.42
84020;BME280;74102;49.084;13.694;2024-02-16T08:53:15;93438.59;;;5.76;75.62
84020;BME280;74102;49.084;13.694;2024-02-16T08:55:42;93449.53;;;5.79;75.59
84020;BME280;74102;49.084;13.694;2024-02-16T08:58:08;93436.44;;;5.81;75.83
84020;BME280;74102;49.084;13.694;2024-02-16T09:00:33;93443.94;;;5.84;75.84
84020;BME280;74102;49.084;13.694;2024-02-16T09:02:59;93447.22;;;5.86;76.10
84020;BME280;74102;49.084;13.694;2024-02-16T09:05:27;93437.66;;;5.87;76.43
84020;BME280;74102;49.084;13.694;2024-02-16T09:07:52;93438.47;;;5.87;76.37
84020;BME280;74102;49.084;13.694;2024-02-16T09:10:18;93434.09;;;5.88;76.92
84020;BME280;74102;49.084;13.694;2024-02-16T09:12:43;93445.97;;;5.90;76.60
84020;BME280;74102;49.084;13.694;2024-02-16T09:15:09;93441.16;;;5.95;76.95
84020;BME280;74102;49.084;13.694;2024-02-16T09:17:34;93445.78;;;6.01;76.81
84020;BME280;74102;49.084;13.694;2024-02-16T09:20:00;93442.78;;;6.06;76.94
84020;BME280;74102;49.084;13.694;2024-02-16T09:22:26;93450.53;;;6.15;77.80
84020;BME280;74102;49.084;13.694;2024-02-16T09:24:51;93441.00;;;6.33;77.16
84020;BME280;74102;49.084;13.694;2024-02-16T09:27:17;93449.69;;;6.52;77.15
84020;BME280;74102;49.084;13.694;2024-02-16T09:29:42;93443.00;;;6.67;76.39
84020;BME280;74102;49.084;13.694;2024-02-16T09:32:08;93434.41;;;6.84;75.32
84020;BME280;74102;49.084;13.694;2024-02-16T09:34:34;93431.81;;;7.02;74.38
84020;BME280;74102;49.084;13.694;2024-02-16T09:37:00;93432.50;;;7.21;73.70
84020;BME280;74102;49.084;13.694;2024-02-16T09:39:25;93428.75;;;7.41;72.73
84020;BME280;74102;49.084;13.694;2024-02-16T09:41:53;93432.78;;;7.62;72.42
84020;BME280;74102;49.084;13.694;2024-02-16T09:44:20;93432.59;;;7.81;72.30
84020;BME280;74102;49.084;13.694;2024-02-16T09:46:46;93433.38;;;7.99;73.54
84020;BME280;74102;49.084;13.694;2024-02-16T09:49:12;93427.94;;;8.18;73.92
84020;BME280;74102;49.084;13.694;2024-02-16T09:51:37;93438.47;;;8.34;71.11
84020;BME280;74102;49.084;13.694;2024-02-16T09:54:03;93426.97;;;8.53;70.53
84020;BME280;74102;49.084;13.694;2024-02-16T09:56:29;93434.66;;;8.71;66.91
84020;BME280;74102;49.084;13.694;2024-02-16T09:58:54;93434.38;;;8.90;67.74
84020;BME280;74102;49.084;13.694;2024-02-16T10:01:21;93440.94;;;9.10;69.37
84020;BME280;74102;49.084;13.694;2024-02-16T10:03:48;93442.63;;;9.27;68.54
84020;BME280;74102;49.084;13.694;2024-02-16T10:06:14;93438.88;;;9.46;67.56
84020;BME280;74102;49.084;13.694;2024-02-16T10:08:52;93444.91;;;9.63;67.34
84020;BME280;74102;49.084;13.694;2024-02-16T10:11:20;93436.06;;;9.80;67.01
84020;BME280;74102;49.084;13.694;2024-02-16T10:16:21;93428.84;;;10.06;66.69
84020;BME280;74102;49.084;13.694;2024-02-16T10:18:47;93435.22;;;10.20;65.49
84020;BME280;74102;49.084;13.694;2024-02-16T10:21:12;93438.94;;;10.33;65.47
84020;BME280;74102;49.084;13.694;2024-02-16T10:23:37;93439.22;;;10.46;63.51
84020;BME280;74102;49.084;13.694;2024-02-16T10:26:03;93440.00;;;10.55;63.44
84020;BME280;74102;49.084;13.694;2024-02-16T10:28:29;93429.63;;;10.70;62.88
84020;BME280;74102;49.084;13.694;2024-02-16T10:31:00;93439.72;;;10.81;61.57
84020;BME280;74102;49.084;13.694;2024-02-16T10:33:27;93438.69;;;10.90;62.37
84020;BME280;74102;49.084;13.694;2024-02-16T10:35:55;93433.75;;;10.95;61.58
84020;BME280;74102;49.084;13.694;2024-02-16T10:38:22;93431.59;;;10.98;61.56
84020;BME280;74102;49.084;13.694;2024-02-16T10:40:50;93428.28;;;11.04;60.91
84020;BME280;74102;49.084;13.694;2024-02-16T10:43:17;93424.47;;;11.15;61.07
84020;BME280;74102;49.084;13.694;2024-02-16T10:45:43;93431.28;;;11.24;59.78
84020;BME280;74102;49.084;13.694;2024-02-16T10:48:10;93426.63;;;11.34;59.26
84020;BME280;74102;49.084;13.694;2024-02-16T10:50:36;93432.53;;;11.36;58.30
84020;BME280;74102;49.084;13.694;2024-02-16T10:53:14;93423.84;;;11.36;59.74
84020;BME280;74102;49.084;13.694;2024-02-16T10:55:41;93423.75;;;11.29;58.42
84020;BME280;74102;49.084;13.694;2024-02-16T10:58:10;93419.31;;;11.30;59.98
84020;BME280;74102;49.084;13.694;2024-02-16T11:00:36;93417.81;;;11.35;60.71
84020;BME280;74102;49.084;13.694;2024-02-16T11:03:03;93415.81;;;11.37;60.61
84020;BME280;74102;49.084;13.694;2024-02-16T11:05:35;93413.84;;;11.39;61.62
84020;BME280;74102;49.084;13.694;2024-02-16T11:08:05;93420.34;;;11.43;61.69
84020;BME280;74102;49.084;13.694;2024-02-16T11:10:36;93407.91;;;11.45;61.83
84020;BME280;74102;49.084;13.694;2024-02-16T11:13:02;93416.88;;;11.51;62.84
84020;BME280;74102;49.084;13.694;2024-02-16T11:15:33;93424.22;;;11.55;62.00
84020;BME280;74102;49.084;13.694;2024-02-16T11:18:03;93415.66;;;11.61;62.39
84020;BME280;74102;49.084;13.694;2024-02-16T11:20:36;93419.50;;;11.65;62.42
84020;BME280;74102;49.084;13.694;2024-02-16T11:23:08;93434.22;;;11.75;62.76
84020;BME280;74102;49.084;13.694;2024-02-16T11:25:34;93429.25;;;11.80;62.41
84020;BME280;74102;49.084;13.694;2024-02-16T11:28:01;93424.28;;;11.85;62.81
84020;BME280;74102;49.084;13.694;2024-02-16T11:30:27;93424.75;;;11.88;62.54
84020;BME280;74102;49.084;13.694;2024-02-16T11:32:52;93428.84;;;11.91;62.39
84020;BME280;74102;49.084;13.694;2024-02-16T11:35:17;93424.41;;;11.91;61.65
84020;BME280;74102;49.084;13.694;2024-02-16T11:37:43;93415.38;;;11.94;61.77
84020;BME280;74102;49.084;13.694;2024-02-16T11:40:12;93408.78;;;11.98;62.21
84020;BME280;74102;49.084;13.694;2024-02-16T11:42:37;93419.34;;;12.04;62.23
84020;BME280;74102;49.084;13.694;2024-02-16T11:45:03;93418.63;;;12.10;63.02
84020;BME280;74102;49.084;13.694;2024-02-16T11:47:28;93410.59;;;12.12;62.33
84020;BME280;74102;49.084;13.694;2024-02-16T11:50:20;93414.31;;;12.18;63.05
84020;BME280;74102;49.084;13.694;2024-02-16T11:52:46;93408.44;;;12.30;62.52
84020;BME280;74102;49.084;13.694;2024-02-16T11:55:12;93418.19;;;12.36;62.07
84020;BME280;74102;49.084;13.694;2024-02-16T11:57:40;93407.00;;;12.42;61.74
84020;BME280;74102;49.084;13.694;2024-02-16T12:00:06;93405.91;;;12.51;61.92
84020;BME280;74102;49.084;13.694;2024-02-16T12:02:36;93397.47;;;12.56;61.41
84020;BME280;74102;49.084;13.694;2024-02-16T12:05:02;93402.19;;;12.60;61.33
84020;BME280;74102;49.084;13.694;2024-02-16T12:07:28;93398.84;;;12.66;61.04
84020;BME280;74102;49.084;13.694;2024-02-16T12:10:03;93405.59;;;12.76;61.17
84020;BME280;74102;49.084;13.694;2024-02-16T12:12:31;93398.00;;;12.81;59.93
84020;BME280;74102;49.084;13.694;2024-02-16T12:14:56;93400.72;;;12.87;60.13
84020;BME280;74102;49.084;13.694;2024-02-16T12:17:23;93390.28;;;12.94;59.97
84020;BME280;74102;49.084;13.694;2024-02-16T12:19:50;93401.28;;;13.04;60.19
84020;BME280;74102;49.084;13.694;2024-02-16T12:22:22;93396.97;;;13.11;59.68
84020;BME280;74102;49.084;13.694;2024-02-16T12:24:50;93396.59;;;13.14;58.46
84020;BME280;74102;49.084;13.694;2024-02-16T12:27:16;93397.84;;;13.18;58.22
84020;BME280;74102;49.084;13.694;2024-02-16T12:29:42;93393.84;;;13.22;58.41
84020;BME280;74102;49.084;13.694;2024-02-16T12:32:07;93388.22;;;13.25;58.14
84020;BME280;74102;49.084;13.694;2024-02-16T12:34:36;93391.09;;;13.30;58.02
84020;BME280;74102;49.084;13.694;2024-02-16T12:37:05;93386.66;;;13.31;57.25
84020;BME280;74102;49.084;13.694;2024-02-16T12:39:35;93382.22;;;13.31;57.32
84020;BME280;74102;49.084;13.694;2024-02-16T12:42:00;93383.03;;;13.32;58.06
84020;BME280;74102;49.084;13.694;2024-02-16T12:44:26;93391.09;;;13.30;56.93
84020;BME280;74102;49.084;13.694;2024-02-16T12:46:51;93389.44;;;13.23;56.69
84020;BME280;74102;49.084;13.694;2024-02-16T12:49:16;93393.84;;;13.22;56.63
84020;BME280;74102;49.084;13.694;2024-02-16T12:51:42;93389.44;;;13.23;56.44
84020;BME280;74102;49.084;13.694;2024-02-16T12:54:07;93385.72;;;13.17;53.97